sensor_id;sensor_type;location;lat;lon;timestamp;noise_LAeq;noise_LA_min;noise_LA_max;noise_LA01;noise_LA95
74496;Laerm;62979;55.720;37.606;2023-02-01T00:00:01;47.60;42.89;55.56;;
74496;Laerm;62979;55.720;37.606;2023-02-01T00:02:29;47.60;42.91;57.65;;
74496;Laerm;62979;55.720;37.606;2023-02-01T00:04:56;47.55;42.85;55.08;;
74496;Laerm;62979;55.720;37.606;2023-02-01T00:07:23;47.33;43.01;64.34;;
74496;Laerm;62979;55.720;37.606;2023-02-01T00:09:50;50.35;43.65;61.05;;
74496;Laerm;62979;55.720;37.606;2023-02-01T00:12:18;48.22;44.27;60.54;;
74496;Laerm;62979;55.720;37.606;2023-02-01T00:14:46;48.65;43.75;64.23;;
74496;Laerm;62979;55.720;37.606;2023-02-01T00:17:14;47.34;43.20;57.73;;
74496;Laerm;62979;55.720;37.606;2023-02-01T00:19:41;48.02;43.16;56.55;;
74496;Laerm;62979;55.720;37.606;2023-02-01T00:22:08;49.02;43.70;60.20;;
74496;Laerm;62979;55.720;37.606;2023-02-01T00:24:34;48.36;43.89;63.85;;
74496;Laerm;62979;55.720;37.606;2023-02-01T00:27:01;47.00;42.55;57.48;;
74496;Laerm;62979;55.720;37.606;2023-02-01T00:29:30;47.54;43.87;57.48;;
74496;Laerm;62979;55.720;37.606;2023-02-01T00:31:56;47.74;43.63;63.66;;
74496;Laerm;62979;55.720;37.606;2023-02-01T00:34:23;48.38;44.08;59.94;;
74496;Laerm;62979;55.720;37.606;2023-02-01T00:36:50;50.94;44.16;62.31;;
74496;Laerm;62979;55.720;37.606;2023-02-01T00:39:17;48.03;43.20;56.51;;
74496;Laerm;62979;55.720;37.606;2023-02-01T00:41:44;47.57;43.58;56.78;;
74496;Laerm;62979;55.720;37.606;2023-02-01T00:44:11;46.70;42.31;55.12;;
74496;Laerm;62979;55.720;37.606;2023-02-01T00:46:39;46.32;41.90;57.30;;
74496;Laerm;62979;55.720;37.606;2023-02-01T00:49:06;47.89;42.70;58.36;;
74496;Laerm;62979;55.720;37.606;2023-02-01T00:51:35;47.85;43.69;57.19;;
74496;Laerm;62979;55.720;37.606;2023-02-01T00:54:03;48.86;42.17;57.74;;
74496;Laerm;62979;55.720;37.606;2023-02-01T00:56:30;48.31;42.66;61.35;;
74496;Laerm;62979;55.720;37.606;2023-02-01T00:58:57;47.55;42.64;57.89;;
74496;Laerm;62979;55.720;37.606;2023-02-01T01:01:26;49.39;44.04;57.27;;
74496;Laerm;62979;55.720;37.606;2023-02-01T01:03:57;49.38;44.09;57.30;;
74496;Laerm;62979;55.720;37.606;2023-02-01T01:06:27;48.97;44.04;57.42;;
74496;Laerm;62979;55.720;37.606;2023-02-01T01:08:58;47.49;43.50;59.60;;
74496;Laerm;62979;55.720;37.606;2023-02-01T01:11:29;49.68;43.83;58.27;;
74496;Laerm;62979;55.720;37.606;2023-02-01T01:13:58;47.90;44.18;57.42;;
74496;Laerm;62979;55.720;37.606;2023-02-01T01:16:28;49.00;44.53;57.28;;
74496;Laerm;62979;55.720;37.606;2023-02-01T01:18:57;50.41;43.42;63.09;;
74496;Laerm;62979;55.720;37.606;2023-02-01T01:21:26;49.50;44.13;59.30;;
74496;Laerm;62979;55.720;37.606;2023-02-01T01:23:53;48.36;44.10;57.03;;
74496;Laerm;62979;55.720;37.606;2023-02-01T01:26:22;48.12;43.79;57.88;;
74496;Laerm;62979;55.720;37.606;2023-02-01T01:28:50;48.64;44.13;60.17;;
74496;Laerm;62979;55.720;37.606;2023-02-01T01:31:19;50.81;44.72;58.41;;
74496;Laerm;62979;55.720;37.606;2023-02-01T01:33:52;48.00;44.06;57.28;;
74496;Laerm;62979;55.720;37.606;2023-02-01T01:36:22;48.37;43.76;56.83;;
74496;Laerm;62979;55.720;37.606;2023-02-01T01:38:50;48.05;44.54;58.85;;
74496;Laerm;62979;55.720;37.606;2023-02-01T01:41:21;49.13;43.82;58.45;;
74496;Laerm;62979;55.720;37.606;2023-02-01T01:43:55;49.10;44.47;65.62;;
74496;Laerm;62979;55.720;37.606;2023-02-01T01:46:24;47.96;43.62;60.46;;
74496;Laerm;62979;55.720;37.606;2023-02-01T01:49:01;47.36;42.93;57.79;;
74496;Laerm;62979;55.720;37.606;2023-02-01T01:51:37;47.20;43.06;57.86;;
74496;Laerm;62979;55.720;37.606;2023-02-01T01:54:11;47.29;43.18;60.01;;
74496;Laerm;62979;55.720;37.606;2023-02-01T01:56:47;48.48;43.57;63.10;;
74496;Laerm;62979;55.720;37.606;2023-02-01T01:59:17;51.65;44.76;63.27;;
74496;Laerm;62979;55.720;37.606;2023-02-01T02:01:45;49.65;45.36;59.92;;
74496;Laerm;62979;55.720;37.606;2023-02-01T02:04:13;51.93;44.85;69.15;;
74496;Laerm;62979;55.720;37.606;2023-02-01T02:06:49;50.41;44.49;61.90;;
74496;Laerm;62979;55.720;37.606;2023-02-01T02:09:18;48.42;44.32;59.05;;
74496;Laerm;62979;55.720;37.606;2023-02-01T02:11:45;48.63;44.03;59.30;;
74496;Laerm;62979;55.720;37.606;2023-02-01T02:14:16;47.65;43.80;56.65;;
74496;Laerm;62979;55.720;37.606;2023-02-01T02:17:21;48.28;43.84;58.06;;
74496;Laerm;62979;55.720;37.606;2023-02-01T02:20:40;47.15;43.33;56.64;;
74496;Laerm;62979;55.720;37.606;2023-02-01T02:26:55;55.69;44.37;71.72;;
74496;Laerm;62979;55.720;37.606;2023-02-01T02:30:02;49.18;44.30;61.70;;
74496;Laerm;62979;55.720;37.606;2023-02-01T02:32:57;50.47;43.64;63.90;;
74496;Laerm;62979;55.720;37.606;2023-02-01T02:35:43;48.44;43.34;57.49;;
74496;Laerm;62979;55.720;37.606;2023-02-01T02:38:21;53.62;45.93;69.44;;
74496;Laerm;62979;55.720;37.606;2023-02-01T02:41:03;48.38;44.49;61.67;;
74496;Laerm;62979;55.720;37.606;2023-02-01T02:43:43;47.96;44.05;60.74;;
74496;Laerm;62979;55.720;37.606;2023-02-01T02:46:35;51.02;46.15;61.29;;
74496;Laerm;62979;55.720;37.606;2023-02-01T02:49:29;50.90;46.16;62.33;;
74496;Laerm;62979;55.720;37.606;2023-02-01T02:52:10;50.84;44.67;63.75;;
74496;Laerm;62979;55.720;37.606;2023-02-01T02:54:59;49.04;44.04;60.43;;
74496;Laerm;62979;55.720;37.606;2023-02-01T02:57:32;48.52;44.72;56.67;;
74496;Laerm;62979;55.720;37.606;2023-02-01T03:00:21;49.48;45.29;57.22;;
74496;Laerm;62979;55.720;37.606;2023-02-01T03:03:08;52.07;46.60;65.82;;
74496;Laerm;62979;55.720;37.606;2023-02-01T03:05:53;52.87;47.03;64.57;;
74496;Laerm;62979;55.720;37.606;2023-02-01T03:08:23;51.01;45.67;63.72;;
74496;Laerm;62979;55.720;37.606;2023-02-01T03:10:57;50.73;46.08;58.67;;
74496;Laerm;62979;55.720;37.606;2023-02-01T03:13:36;51.69;45.38;65.18;;
74496;Laerm;62979;55.720;37.606;2023-02-01T03:16:11;53.57;45.67;63.31;;
74496;Laerm;62979;55.720;37.606;2023-02-01T03:18:49;50.65;46.93;59.32;;
74496;Laerm;62979;55.720;37.606;2023-02-01T03:21:25;52.13;46.66;70.09;;
74496;Laerm;62979;55.720;37.606;2023-02-01T03:24:01;53.70;47.54;62.05;;
74496;Laerm;62979;55.720;37.606;2023-02-01T03:26:34;54.05;47.25;63.91;;
74496;Laerm;62979;55.720;37.606;2023-02-01T03:29:11;51.91;46.60;62.41;;
74496;Laerm;62979;55.720;37.606;2023-02-01T03:31:40;52.60;46.04;60.87;;
74496;Laerm;62979;55.720;37.606;2023-02-01T03:34:07;54.21;45.71;73.00;;
74496;Laerm;62979;55.720;37.606;2023-02-01T03:36:40;51.78;46.86;58.88;;
74496;Laerm;62979;55.720;37.606;2023-02-01T03:39:18;52.17;46.74;62.64;;
74496;Laerm;62979;55.720;37.606;2023-02-01T03:41:51;53.00;46.92;75.08;;
74496;Laerm;62979;55.720;37.606;2023-02-01T03:44:24;54.35;45.72;64.85;;
74496;Laerm;62979;55.720;37.606;2023-02-01T03:46:58;54.82;47.33;63.00;;
74496;Laerm;62979;55.720;37.606;2023-02-01T03:49:32;52.39;48.04;60.75;;
74496;Laerm;62979;55.720;37.606;2023-02-01T03:52:01;53.02;48.56;61.59;;
74496;Laerm;62979;55.720;37.606;2023-02-01T03:54:30;51.61;47.22;60.65;;
74496;Laerm;62979;55.720;37.606;2023-02-01T03:57:05;52.22;46.04;59.47;;
74496;Laerm;62979;55.720;37.606;2023-02-01T03:59:39;52.97;47.86;61.88;;
74496;Laerm;62979;55.720;37.606;2023-02-01T04:02:06;52.83;46.99;72.41;;
74496;Laerm;62979;55.720;37.606;2023-02-01T04:04:34;53.81;48.27;61.70;;
74496;Laerm;62979;55.720;37.606;2023-02-01T04:07:02;55.72;49.29;65.81;;
74496;Laerm;62979;55.720;37.606;2023-02-01T04:09:30;53.94;48.11;62.02;;
74496;Laerm;62979;55.720;37.606;2023-02-01T04:11:57;54.43;49.20;63.90;;
74496;Laerm;62979;55.720;37.606;2023-02-01T04:14:24;54.20;49.04;61.81;;
74496;Laerm;62979;55.720;37.606;2023-02-01T04:16:51;52.90;46.75;62.17;;
74496;Laerm;62979;55.720;37.606;2023-02-01T04:19:18;55.62;47.93;63.24;;
74496;Laerm;62979;55.720;37.606;2023-02-01T04:21:45;54.78;49.16;63.75;;
74496;Laerm;62979;55.720;37.606;2023-02-01T04:24:11;54.65;48.88;64.55;;
74496;Laerm;62979;55.720;37.606;2023-02-01T04:26:40;53.67;47.54;62.93;;
74496;Laerm;62979;55.720;37.606;2023-02-01T04:29:08;54.82;48.65;64.68;;
74496;Laerm;62979;55.720;37.606;2023-02-01T04:31:35;62.26;49.90;70.68;;
74496;Laerm;62979;55.720;37.606;2023-02-01T04:34:02;54.73;49.11;64.86;;
74496;Laerm;62979;55.720;37.606;2023-02-01T04:36:29;57.08;50.40;67.28;;
74496;Laerm;62979;55.720;37.606;2023-02-01T04:38:56;61.35;50.99;70.66;;
74496;Laerm;62979;55.720;37.606;2023-02-01T04:41:23;59.48;53.14;67.80;;
74496;Laerm;62979;55.720;37.606;2023-02-01T04:43:52;58.38;50.71;66.76;;
74496;Laerm;62979;55.720;37.606;2023-02-01T04:46:19;59.48;52.70;72.04;;
74496;Laerm;62979;55.720;37.606;2023-02-01T04:48:46;59.10;53.05;65.54;;
74496;Laerm;62979;55.720;37.606;2023-02-01T04:51:13;57.98;49.43;63.57;;
74496;Laerm;62979;55.720;37.606;2023-02-01T04:53:41;57.44;50.97;64.10;;
74496;Laerm;62979;55.720;37.606;2023-02-01T04:56:08;57.97;51.38;65.59;;
74496;Laerm;62979;55.720;37.606;2023-02-01T04:58:35;58.02;51.72;66.77;;
74496;Laerm;62979;55.720;37.606;2023-02-01T05:01:04;58.44;53.11;64.80;;
74496;Laerm;62979;55.720;37.606;2023-02-01T05:03:31;59.22;53.42;65.92;;
74496;Laerm;62979;55.720;37.606;2023-02-01T05:05:59;59.04;52.40;66.28;;
74496;Laerm;62979;55.720;37.606;2023-02-01T05:08:26;59.78;52.57;68.94;;
74496;Laerm;62979;55.720;37.606;2023-02-01T05:10:54;60.18;54.04;72.75;;
74496;Laerm;62979;55.720;37.606;2023-02-01T05:13:21;61.50;54.74;72.35;;
74496;Laerm;62979;55.720;37.606;2023-02-01T05:16:18;62.09;56.39;69.57;;
74496;Laerm;62979;55.720;37.606;2023-02-01T05:18:45;60.70;52.31;76.40;;
74496;Laerm;62979;55.720;37.606;2023-02-01T05:21:12;59.19;50.94;68.48;;
74496;Laerm;62979;55.720;37.606;2023-02-01T05:23:39;59.32;52.12;68.88;;
74496;Laerm;62979;55.720;37.606;2023-02-01T05:26:20;59.33;51.81;66.49;;
74496;Laerm;62979;55.720;37.606;2023-02-01T05:28:47;60.30;54.60;67.15;;
74496;Laerm;62979;55.720;37.606;2023-02-01T05:31:13;59.51;53.29;65.79;;
74496;Laerm;62979;55.720;37.606;2023-02-01T05:33:42;62.13;52.63;70.15;;
74496;Laerm;62979;55.720;37.606;2023-02-01T05:36:09;59.43;51.92;65.90;;
74496;Laerm;62979;55.720;37.606;2023-02-01T05:38:36;60.25;54.68;65.65;;
74496;Laerm;62979;55.720;37.606;2023-02-01T05:41:03;59.43;51.64;67.63;;
74496;Laerm;62979;55.720;37.606;2023-02-01T05:43:30;60.59;51.66;67.90;;
74496;Laerm;62979;55.720;37.606;2023-02-01T05:45:57;60.99;53.82;68.33;;
74496;Laerm;62979;55.720;37.606;2023-02-01T05:48:24;58.47;51.90;65.11;;
74496;Laerm;62979;55.720;37.606;2023-02-01T05:50:52;60.28;53.96;65.99;;
74496;Laerm;62979;55.720;37.606;2023-02-01T05:53:19;61.85;56.71;74.94;;
74496;Laerm;62979;55.720;37.606;2023-02-01T05:55:46;63.09;55.92;69.13;;
74496;Laerm;62979;55.720;37.606;2023-02-01T05:58:13;58.98;50.49;66.92;;
74496;Laerm;62979;55.720;37.606;2023-02-01T06:00:40;59.43;52.26;70.10;;
74496;Laerm;62979;55.720;37.606;2023-02-01T06:03:07;58.93;52.90;66.34;;
74496;Laerm;62979;55.720;37.606;2023-02-01T06:05:34;59.80;51.87;68.02;;
74496;Laerm;62979;55.720;37.606;2023-02-01T06:08:03;60.34;50.90;69.42;;
74496;Laerm;62979;55.720;37.606;2023-02-01T06:10:33;59.41;51.10;65.69;;
74496;Laerm;62979;55.720;37.606;2023-02-01T06:12:59;58.72;51.93;64.72;;
74496;Laerm;62979;55.720;37.606;2023-02-01T06:15:29;59.14;51.47;66.55;;
74496;Laerm;62979;55.720;37.606;2023-02-01T06:17:56;59.56;52.29;64.86;;
74496;Laerm;62979;55.720;37.606;2023-02-01T06:20:23;60.71;51.45;74.34;;
74496;Laerm;62979;55.720;37.606;2023-02-01T06:22:49;57.77;47.89;69.59;;
74496;Laerm;62979;55.720;37.606;2023-02-01T06:25:19;59.40;52.65;67.40;;
74496;Laerm;62979;55.720;37.606;2023-02-01T06:27:46;63.36;53.17;77.77;;
74496;Laerm;62979;55.720;37.606;2023-02-01T06:30:14;64.81;56.49;79.16;;
74496;Laerm;62979;55.720;37.606;2023-02-01T06:32:41;59.63;53.36;69.35;;
74496;Laerm;62979;55.720;37.606;2023-02-01T06:35:09;66.66;55.46;79.43;;
74496;Laerm;62979;55.720;37.606;2023-02-01T06:37:41;61.53;55.74;75.29;;
74496;Laerm;62979;55.720;37.606;2023-02-01T06:40:10;62.22;52.10;77.75;;
74496;Laerm;62979;55.720;37.606;2023-02-01T06:42:38;59.49;53.39;66.95;;
74496;Laerm;62979;55.720;37.606;2023-02-01T06:45:07;58.78;51.59;66.54;;
74496;Laerm;62979;55.720;37.606;2023-02-01T06:47:34;58.24;52.33;65.68;;
74496;Laerm;62979;55.720;37.606;2023-02-01T06:50:01;59.32;53.22;66.71;;
74496;Laerm;62979;55.720;37.606;2023-02-01T06:52:28;58.11;50.34;65.63;;
74496;Laerm;62979;55.720;37.606;2023-02-01T06:54:55;58.87;50.93;66.44;;
74496;Laerm;62979;55.720;37.606;2023-02-01T06:57:21;58.00;51.40;65.42;;
74496;Laerm;62979;55.720;37.606;2023-02-01T06:59:50;57.92;52.34;68.20;;
74496;Laerm;62979;55.720;37.606;2023-02-01T07:02:16;58.97;51.86;68.19;;
74496;Laerm;62979;55.720;37.606;2023-02-01T07:04:43;57.69;49.24;63.76;;
74496;Laerm;62979;55.720;37.606;2023-02-01T07:07:10;58.38;51.30;67.67;;
74496;Laerm;62979;55.720;37.606;2023-02-01T07:09:37;59.64;52.02;68.72;;
74496;Laerm;62979;55.720;37.606;2023-02-01T07:12:05;56.89;50.59;62.48;;
74496;Laerm;62979;55.720;37.606;2023-02-01T07:14:32;56.43;48.60;66.22;;
74496;Laerm;62979;55.720;37.606;2023-02-01T07:17:00;57.76;50.22;66.62;;
74496;Laerm;62979;55.720;37.606;2023-02-01T07:19:27;58.02;50.99;65.93;;
74496;Laerm;62979;55.720;37.606;2023-02-01T07:21:54;58.38;50.53;72.59;;
74496;Laerm;62979;55.720;37.606;2023-02-01T07:24:21;58.83;50.25;68.61;;
74496;Laerm;62979;55.720;37.606;2023-02-01T07:26:48;58.29;52.35;64.47;;
74496;Laerm;62979;55.720;37.606;2023-02-01T07:29:16;58.99;52.23;64.50;;
74496;Laerm;62979;55.720;37.606;2023-02-01T07:31:44;57.02;49.00;63.07;;
74496;Laerm;62979;55.720;37.606;2023-02-01T07:34:12;58.01;52.57;65.67;;
74496;Laerm;62979;55.720;37.606;2023-02-01T07:36:39;58.21;48.35;72.53;;
74496;Laerm;62979;55.720;37.606;2023-02-01T07:39:07;58.54;50.57;66.62;;
74496;Laerm;62979;55.720;37.606;2023-02-01T07:41:34;57.86;50.41;64.67;;
74496;Laerm;62979;55.720;37.606;2023-02-01T07:44:01;59.01;50.38;69.99;;
74496;Laerm;62979;55.720;37.606;2023-02-01T07:46:28;58.24;50.45;66.45;;
74496;Laerm;62979;55.720;37.606;2023-02-01T07:48:55;58.99;51.17;68.93;;
74496;Laerm;62979;55.720;37.606;2023-02-01T07:51:24;58.04;50.06;64.04;;
74496;Laerm;62979;55.720;37.606;2023-02-01T07:53:50;57.25;49.42;64.16;;
74496;Laerm;62979;55.720;37.606;2023-02-01T07:56:19;58.63;50.84;65.49;;
74496;Laerm;62979;55.720;37.606;2023-02-01T07:58:48;59.01;52.26;77.82;;
74496;Laerm;62979;55.720;37.606;2023-02-01T08:01:16;58.79;51.70;77.28;;
74496;Laerm;62979;55.720;37.606;2023-02-01T08:03:46;59.73;49.90;67.46;;
74496;Laerm;62979;55.720;37.606;2023-02-01T08:06:13;59.37;50.25;66.73;;
74496;Laerm;62979;55.720;37.606;2023-02-01T08:08:41;57.97;50.64;64.97;;
74496;Laerm;62979;55.720;37.606;2023-02-01T08:11:10;58.12;48.58;71.19;;
74496;Laerm;62979;55.720;37.606;2023-02-01T08:13:37;59.40;51.44;69.19;;
74496;Laerm;62979;55.720;37.606;2023-02-01T08:16:07;58.48;50.51;70.67;;
74496;Laerm;62979;55.720;37.606;2023-02-01T08:18:36;58.35;49.50;68.22;;
74496;Laerm;62979;55.720;37.606;2023-02-01T08:21:05;58.92;53.37;75.83;;
74496;Laerm;62979;55.720;37.606;2023-02-01T08:23:33;58.78;51.81;72.67;;
74496;Laerm;62979;55.720;37.606;2023-02-01T08:26:11;58.12;51.22;77.17;;
74496;Laerm;62979;55.720;37.606;2023-02-01T08:28:40;59.85;53.37;73.98;;
74496;Laerm;62979;55.720;37.606;2023-02-01T08:31:13;61.43;51.05;76.17;;
74496;Laerm;62979;55.720;37.606;2023-02-01T08:33:41;59.32;51.90;73.95;;
74496;Laerm;62979;55.720;37.606;2023-02-01T08:36:10;58.46;47.89;78.45;;
74496;Laerm;62979;55.720;37.606;2023-02-01T08:38:39;56.89;47.41;66.58;;
74496;Laerm;62979;55.720;37.606;2023-02-01T08:41:10;58.27;48.74;64.94;;
74496;Laerm;62979;55.720;37.606;2023-02-01T08:43:37;58.64;51.23;74.38;;
74496;Laerm;62979;55.720;37.606;2023-02-01T08:46:05;58.35;49.81;67.31;;
74496;Laerm;62979;55.720;37.606;2023-02-01T08:48:33;58.27;52.04;69.49;;
74496;Laerm;62979;55.720;37.606;2023-02-01T08:51:02;56.66;51.24;68.29;;
74496;Laerm;62979;55.720;37.606;2023-02-01T08:53:29;58.69;48.71;70.37;;
74496;Laerm;62979;55.720;37.606;2023-02-01T08:55:56;59.04;50.83;64.17;;
74496;Laerm;62979;55.720;37.606;2023-02-01T08:58:24;58.82;49.01;75.51;;
74496;Laerm;62979;55.720;37.606;2023-02-01T09:00:52;56.23;48.17;63.34;;
74496;Laerm;62979;55.720;37.606;2023-02-01T09:03:18;59.91;49.89;68.03;;
74496;Laerm;62979;55.720;37.606;2023-02-01T09:05:45;58.83;52.08;75.74;;
74496;Laerm;62979;55.720;37.606;2023-02-01T09:08:13;56.97;47.69;70.59;;
74496;Laerm;62979;55.720;37.606;2023-02-01T09:10:41;56.61;48.33;67.70;;
74496;Laerm;62979;55.720;37.606;2023-02-01T09:13:08;58.11;49.71;65.06;;
74496;Laerm;62979;55.720;37.606;2023-02-01T09:15:37;58.62;48.37;77.68;;
74496;Laerm;62979;55.720;37.606;2023-02-01T09:18:04;58.96;51.00;68.08;;
74496;Laerm;62979;55.720;37.606;2023-02-01T09:20:31;57.31;50.67;65.44;;
74496;Laerm;62979;55.720;37.606;2023-02-01T09:22:58;56.03;47.67;65.97;;
74496;Laerm;62979;55.720;37.606;2023-02-01T09:25:25;57.75;47.83;66.87;;
74496;Laerm;62979;55.720;37.606;2023-02-01T09:27:53;59.63;48.02;67.23;;
74496;Laerm;62979;55.720;37.606;2023-02-01T09:30:19;59.41;50.38;77.83;;
74496;Laerm;62979;55.720;37.606;2023-02-01T09:32:48;58.60;52.49;65.15;;
74496;Laerm;62979;55.720;37.606;2023-02-01T09:35:15;58.77;50.49;71.81;;
74496;Laerm;62979;55.720;37.606;2023-02-01T09:37:41;56.79;47.43;65.75;;
74496;Laerm;62979;55.720;37.606;2023-02-01T09:40:14;57.42;50.14;65.32;;
74496;Laerm;62979;55.720;37.606;2023-02-01T09:43:04;58.35;51.80;71.46;;
74496;Laerm;62979;55.720;37.606;2023-02-01T09:45:43;60.15;53.35;69.08;;
74496;Laerm;62979;55.720;37.606;2023-02-01T09:48:17;57.56;48.40;65.30;;
74496;Laerm;62979;55.720;37.606;2023-02-01T09:50:50;59.00;50.50;74.69;;
74496;Laerm;62979;55.720;37.606;2023-02-01T09:53:25;58.15;48.24;71.72;;
74496;Laerm;62979;55.720;37.606;2023-02-01T09:55:58;61.62;51.81;71.08;;
74496;Laerm;62979;55.720;37.606;2023-02-01T09:58:35;62.66;51.33;74.62;;
74496;Laerm;62979;55.720;37.606;2023-02-01T10:01:12;59.56;51.92;67.13;;
74496;Laerm;62979;55.720;37.606;2023-02-01T10:03:43;60.83;51.31;74.42;;
74496;Laerm;62979;55.720;37.606;2023-02-01T10:06:31;57.63;52.37;67.15;;
74496;Laerm;62979;55.720;37.606;2023-02-01T10:09:25;57.99;49.19;71.52;;
74496;Laerm;62979;55.720;37.606;2023-02-01T10:15:42;58.29;48.12;67.99;;
74496;Laerm;62979;55.720;37.606;2023-02-01T10:18:47;58.05;50.75;68.20;;
74496;Laerm;62979;55.720;37.606;2023-02-01T10:21:29;57.92;51.01;66.75;;
74496;Laerm;62979;55.720;37.606;2023-02-01T10:24:23;58.13;50.43;71.90;;
74496;Laerm;62979;55.720;37.606;2023-02-01T10:27:01;58.60;49.30;74.34;;
74496;Laerm;62979;55.720;37.606;2023-02-01T10:29:36;59.41;50.23;66.35;;
74496;Laerm;62979;55.720;37.606;2023-02-01T10:32:13;59.52;51.83;68.76;;
74496;Laerm;62979;55.720;37.606;2023-02-01T10:34:44;58.81;50.85;66.31;;
74496;Laerm;62979;55.720;37.606;2023-02-01T10:37:24;57.45;49.77;66.38;;
74496;Laerm;62979;55.720;37.606;2023-02-01T10:39:55;58.94;50.50;68.37;;
74496;Laerm;62979;55.720;37.606;2023-02-01T10:42:26;57.83;50.52;63.01;;
74496;Laerm;62979;55.720;37.606;2023-02-01T10:44:57;61.97;50.61;71.61;;
74496;Laerm;62979;55.720;37.606;2023-02-01T10:47:25;61.05;51.32;73.11;;
74496;Laerm;62979;55.720;37.606;2023-02-01T10:50:03;58.06;49.44;64.70;;
74496;Laerm;62979;55.720;37.606;2023-02-01T10:52:42;60.24;51.53;70.14;;
74496;Laerm;62979;55.720;37.606;2023-02-01T10:55:33;67.24;57.66;89.68;;
74496;Laerm;62979;55.720;37.606;2023-02-01T10:58:03;62.76;54.69;79.53;;
74496;Laerm;62979;55.720;37.606;2023-02-01T11:00:42;62.03;53.61;80.15;;
74496;Laerm;62979;55.720;37.606;2023-02-01T11:03:32;62.36;54.58;79.31;;
74496;Laerm;62979;55.720;37.606;2023-02-01T11:06:13;61.33;54.56;75.27;;
74496;Laerm;62979;55.720;37.606;2023-02-01T11:08:48;60.54;53.78;69.29;;
74496;Laerm;62979;55.720;37.606;2023-02-01T11:11:16;60.55;54.07;70.48;;
74496;Laerm;62979;55.720;37.606;2023-02-01T11:13:44;59.88;52.25;71.07;;
74496;Laerm;62979;55.720;37.606;2023-02-01T11:16:14;60.54;52.23;70.48;;
74496;Laerm;62979;55.720;37.606;2023-02-01T11:18:41;58.22;48.95;72.25;;
74496;Laerm;62979;55.720;37.606;2023-02-01T11:21:11;60.10;53.20;68.89;;
74496;Laerm;62979;55.720;37.606;2023-02-01T11:23:43;62.06;55.38;72.89;;
74496;Laerm;62979;55.720;37.606;2023-02-01T11:26:15;61.09;54.62;68.34;;
74496;Laerm;62979;55.720;37.606;2023-02-01T11:28:54;61.61;53.09;73.48;;
74496;Laerm;62979;55.720;37.606;2023-02-01T11:31:25;58.40;50.31;65.23;;
74496;Laerm;62979;55.720;37.606;2023-02-01T11:33:58;58.43;51.77;75.74;;
74496;Laerm;62979;55.720;37.606;2023-02-01T11:36:32;59.37;50.72;70.50;;
74496;Laerm;62979;55.720;37.606;2023-02-01T11:39:25;59.90;52.98;77.31;;
74496;Laerm;62979;55.720;37.606;2023-02-01T11:42:02;59.04;51.51;67.51;;
74496;Laerm;62979;55.720;37.606;2023-02-01T11:44:35;59.19;53.60;76.97;;
74496;Laerm;62979;55.720;37.606;2023-02-01T11:47:25;57.90;51.46;65.61;;
74496;Laerm;62979;55.720;37.606;2023-02-01T11:49:54;59.16;53.51;66.35;;
74496;Laerm;62979;55.720;37.606;2023-02-01T11:52:48;59.82;49.32;65.82;;
74496;Laerm;62979;55.720;37.606;2023-02-01T11:55:40;58.46;49.47;63.80;;
74496;Laerm;62979;55.720;37.606;2023-02-01T11:58:47;59.61;50.31;69.29;;
74496;Laerm;62979;55.720;37.606;2023-02-01T12:01:37;58.94;50.14;65.92;;
74496;Laerm;62979;55.720;37.606;2023-02-01T12:04:43;58.18;50.68;74.75;;
74496;Laerm;62979;55.720;37.606;2023-02-01T12:07:19;59.12;52.28;70.03;;
74496;Laerm;62979;55.720;37.606;2023-02-01T12:10:03;60.33;51.90;68.09;;
74496;Laerm;62979;55.720;37.606;2023-02-01T12:12:45;60.11;50.96;80.06;;
74496;Laerm;62979;55.720;37.606;2023-02-01T12:15:42;58.15;50.61;64.61;;
74496;Laerm;62979;55.720;37.606;2023-02-01T12:21:46;57.62;49.60;65.25;;
74496;Laerm;62979;55.720;37.606;2023-02-01T12:28:10;59.98;50.79;69.98;;
74496;Laerm;62979;55.720;37.606;2023-02-01T12:31:08;60.55;51.87;79.41;;
74496;Laerm;62979;55.720;37.606;2023-02-01T12:33:55;59.97;54.51;69.96;;
74496;Laerm;62979;55.720;37.606;2023-02-01T12:36:40;60.34;51.75;71.84;;
74496;Laerm;62979;55.720;37.606;2023-02-01T12:39:22;60.48;51.85;67.36;;
74496;Laerm;62979;55.720;37.606;2023-02-01T12:41:58;64.49;51.31;74.34;;
74496;Laerm;62979;55.720;37.606;2023-02-01T12:44:39;61.87;52.72;70.09;;
74496;Laerm;62979;55.720;37.606;2023-02-01T12:47:18;57.74;53.00;64.66;;
74496;Laerm;62979;55.720;37.606;2023-02-01T12:49:58;58.28;49.31;64.60;;
74496;Laerm;62979;55.720;37.606;2023-02-01T12:52:40;56.58;50.27;64.36;;
74496;Laerm;62979;55.720;37.606;2023-02-01T12:55:20;59.09;51.03;72.75;;
74496;Laerm;62979;55.720;37.606;2023-02-01T12:57:54;60.67;53.67;70.04;;
74496;Laerm;62979;55.720;37.606;2023-02-01T13:00:31;58.66;51.63;74.49;;
74496;Laerm;62979;55.720;37.606;2023-02-01T13:03:06;57.94;51.44;66.61;;
74496;Laerm;62979;55.720;37.606;2023-02-01T13:05:50;57.44;50.73;63.90;;
74496;Laerm;62979;55.720;37.606;2023-02-01T13:08:25;57.82;49.89;67.59;;
74496;Laerm;62979;55.720;37.606;2023-02-01T13:11:00;58.56;51.03;66.08;;
74496;Laerm;62979;55.720;37.606;2023-02-01T13:13:47;64.03;54.54;71.60;;
74496;Laerm;62979;55.720;37.606;2023-02-01T13:16:24;59.70;50.52;70.64;;
74496;Laerm;62979;55.720;37.606;2023-02-01T13:19:05;59.63;49.97;75.53;;
74496;Laerm;62979;55.720;37.606;2023-02-01T13:21:39;59.29;50.81;71.95;;
74496;Laerm;62979;55.720;37.606;2023-02-01T13:24:26;57.78;51.69;65.86;;
74496;Laerm;62979;55.720;37.606;2023-02-01T13:26:56;60.79;54.79;75.44;;
74496;Laerm;62979;55.720;37.606;2023-02-01T13:29:24;58.45;50.90;65.49;;
74496;Laerm;62979;55.720;37.606;2023-02-01T13:35:37;58.37;51.13;67.59;;
74496;Laerm;62979;55.720;37.606;2023-02-01T13:38:48;59.81;51.51;71.52;;
74496;Laerm;62979;55.720;37.606;2023-02-01T13:41:28;57.91;51.46;63.57;;
74496;Laerm;62979;55.720;37.606;2023-02-01T13:44:11;58.19;49.80;68.05;;
74496;Laerm;62979;55.720;37.606;2023-02-01T13:46:42;58.41;48.62;71.82;;
74496;Laerm;62979;55.720;37.606;2023-02-01T13:49:21;58.71;51.09;75.30;;
74496;Laerm;62979;55.720;37.606;2023-02-01T13:51:53;59.90;50.22;67.48;;
74496;Laerm;62979;55.720;37.606;2023-02-01T13:54:27;58.39;49.81;73.79;;
74496;Laerm;62979;55.720;37.606;2023-02-01T13:56:55;58.29;49.07;67.21;;
74496;Laerm;62979;55.720;37.606;2023-02-01T13:59:52;65.18;57.17;73.38;;
74496;Laerm;62979;55.720;37.606;2023-02-01T14:06:36;59.00;53.18;67.97;;
74496;Laerm;62979;55.720;37.606;2023-02-01T14:09:19;57.85;50.53;67.49;;
74496;Laerm;62979;55.720;37.606;2023-02-01T14:11:49;58.47;50.82;69.89;;
74496;Laerm;62979;55.720;37.606;2023-02-01T14:14:48;57.25;48.78;65.72;;
74496;Laerm;62979;55.720;37.606;2023-02-01T14:17:39;58.74;50.83;71.83;;
74496;Laerm;62979;55.720;37.606;2023-02-01T14:20:43;58.00;49.23;67.91;;
74496;Laerm;62979;55.720;37.606;2023-02-01T14:23:38;56.14;49.19;64.58;;
74496;Laerm;62979;55.720;37.606;2023-02-01T14:26:18;57.32;51.12;64.22;;